Time;durP1;ratioP1;P1;durP2;ratioP2;P2;SDS_P1;SDS_P2;PMS_P1;PMS_P2;Temp;Humidity;BMP_temperature;BMP_pressure;BME280_temperature;BME280_humidity;BME280_pressure;Samples;Min_cycle;Max_cycle;Signal;HPM_P1;HPM_P2
2022/07/02 00:00:57;;;;;;;;;;;;;;;17.46;50.69;101167.81;4983774;28;7001;-79
2022/07/02 00:03:36;;;;;;;;;;;;;;;17.45;50.87;101162.59;4957252;28;7364;-79
2022/07/02 00:06:05;;;;;;;;;;;;;;;17.40;50.79;101162.44;4958168;28;8953;-80
2022/07/02 00:08:32;;;;;;;;;;;;;;;17.37;51.02;101162.34;4968902;28;6992;-79
2022/07/02 00:10:59;;;;;;;;;;;;;;;17.33;51.27;101163.97;4985148;28;7645;-79
2022/07/02 00:13:27;;;;;;;;;;;;;;;17.29;51.44;101159.53;4940411;28;6971;-79
2022/07/02 00:15:54;;;;;;;;;;;;;;;17.25;51.79;101156.78;4966570;28;7391;-79
2022/07/02 00:18:21;;;;;;;;;;;;;;;17.19;51.72;101163.50;4980944;28;8045;-79
2022/07/02 00:20:48;;;;;;;;;;;;;;;17.17;52.02;101161.69;4957251;28;7256;-79
2022/07/02 00:23:14;;;;;;;;;;;;;;;17.12;51.79;101161.53;4954814;28;6986;-79
2022/07/02 00:25:53;;;;;;;;;;;;;;;17.11;51.84;101166.69;4953531;28;6780;-79
2022/07/02 00:28:24;;;;;;;;;;;;;;;17.08;51.95;101159.69;4968845;28;7044;-79
2022/07/02 00:30:52;;;;;;;;;;;;;;;17.04;51.53;101158.69;4951047;28;6966;-79
2022/07/02 00:33:18;;;;;;;;;;;;;;;17.03;51.98;101156.94;4946148;28;8172;-79
2022/07/02 00:35:44;;;;;;;;;;;;;;;17.01;52.50;101156.00;4959243;28;7031;-79
2022/07/02 00:38:11;;;;;;;;;;;;;;;17.00;52.15;101162.03;4962499;28;7155;-79
2022/07/02 00:40:38;;;;;;;;;;;;;;;16.99;52.51;101162.78;4953343;28;7067;-79
2022/07/02 00:43:04;;;;;;;;;;;;;;;16.97;52.14;101159.28;4934879;28;7214;-79
2022/07/02 00:45:34;;;;;;;;;;;;;;;16.95;52.20;101158.34;4947100;28;6983;-80
2022/07/02 00:48:00;;;;;;;;;;;;;;;16.93;52.80;101154.84;4967621;28;7282;-79
2022/07/02 00:50:26;;;;;;;;;;;;;;;16.91;52.60;101157.38;4955385;28;6776;-79
2022/07/02 00:52:52;;;;;;;;;;;;;;;16.91;52.67;101156.50;4961301;28;6966;-79
2022/07/02 00:55:17;;;;;;;;;;;;;;;16.87;52.42;101155.50;4962331;28;7254;-79
2022/07/02 00:57:47;;;;;;;;;;;;;;;16.86;52.77;101158.94;4979779;28;6852;-79
2022/07/02 01:00:19;;;;;;;;;;;;;;;16.84;52.78;101152.78;4962029;28;6994;-79
2022/07/02 01:02:46;;;;;;;;;;;;;;;16.81;52.74;101155.28;4941180;28;7007;-79
2022/07/02 01:05:20;;;;;;;;;;;;;;;16.79;52.84;101150.06;4982664;28;6800;-79
2022/07/02 01:10:43;;;;;;;;;;;;;;;16.76;53.03;101149.94;4951818;28;6954;-79
2022/07/02 01:13:12;;;;;;;;;;;;;;;16.75;52.81;101148.19;4939823;28;8617;-79
2022/07/02 01:15:39;;;;;;;;;;;;;;;16.75;53.11;101142.13;4950531;28;6987;-79
2022/07/02 01:18:05;;;;;;;;;;;;;;;16.75;52.71;101134.34;4963796;28;6964;-79
2022/07/02 01:20:31;;;;;;;;;;;;;;;16.72;53.11;101135.16;4947679;28;6983;-79
2022/07/02 01:22:57;;;;;;;;;;;;;;;16.70;53.11;101139.38;4976660;28;8319;-79
2022/07/02 01:25:22;;;;;;;;;;;;;;;16.67;52.99;101136.69;4929346;28;8633;-79
2022/07/02 01:27:48;;;;;;;;;;;;;;;16.65;53.10;101140.94;4969275;28;7002;-79
2022/07/02 01:30:14;;;;;;;;;;;;;;;16.63;53.05;101140.00;4962097;28;8407;-79
2022/07/02 01:32:40;;;;;;;;;;;;;;;16.61;52.98;101142.53;4951854;28;7120;-79
2022/07/02 01:35:09;;;;;;;;;;;;;;;16.58;53.21;101138.97;4980923;28;8511;-79
2022/07/02 01:37:38;;;;;;;;;;;;;;;16.54;53.58;101137.09;4951741;28;8927;-79
2022/07/02 01:40:05;;;;;;;;;;;;;;;16.49;53.08;101136.94;4958121;28;7204;-79
2022/07/02 01:42:30;;;;;;;;;;;;;;;16.44;53.33;101130.72;4963001;28;6804;-79
2022/07/02 01:44:56;;;;;;;;;;;;;;;16.39;53.56;101135.72;4939766;28;7427;-79
2022/07/02 01:47:22;;;;;;;;;;;;;;;16.34;53.63;101132.97;4950416;28;8234;-79
2022/07/02 01:49:48;;;;;;;;;;;;;;;16.28;53.93;101137.94;4950940;28;6784;-79
2022/07/02 01:52:15;;;;;;;;;;;;;;;16.23;53.88;101140.34;4978161;28;6780;-79
2022/07/02 01:54:44;;;;;;;;;;;;;;;16.21;54.05;101143.69;4976879;28;6981;-79
2022/07/02 01:57:12;;;;;;;;;;;;;;;16.17;54.22;101132.34;4940546;28;6967;-79
2022/07/02 01:59:37;;;;;;;;;;;;;;;16.17;54.39;101137.53;4974922;28;6959;-79
2022/07/02 02:02:04;;;;;;;;;;;;;;;16.20;54.39;101134.19;4963973;28;6772;-79
2022/07/02 02:04:31;;;;;;;;;;;;;;;16.21;54.00;101134.22;4967778;28;8802;-79
2022/07/02 02:06:57;;;;;;;;;;;;;;;16.22;54.59;101133.44;4947563;28;7314;-79
2022/07/02 02:09:23;;;;;;;;;;;;;;;16.21;54.33;101135.94;4959381;28;7308;-79
2022/07/02 02:11:49;;;;;;;;;;;;;;;16.22;54.68;101137.69;4931809;28;7010;-79
2022/07/02 02:14:14;;;;;;;;;;;;;;;16.21;54.83;101139.38;4974821;28;6772;-79
2022/07/02 02:16:40;;;;;;;;;;;;;;;16.22;54.75;101138.59;4972611;28;7141;-79
2022/07/02 02:19:07;;;;;;;;;;;;;;;16.23;54.59;101140.34;4946572;28;7023;-79
2022/07/02 02:21:32;;;;;;;;;;;;;;;16.28;54.23;101142.22;4943940;28;6989;-79
2022/07/02 02:23:59;;;;;;;;;;;;;;;16.29;54.26;101139.69;4977355;28;6776;-79
2022/07/02 02:26:26;;;;;;;;;;;;;;;16.29;54.37;101129.34;4948157;28;7321;-79
2022/07/02 02:28:53;;;;;;;;;;;;;;;16.31;54.74;101137.13;4934582;28;8281;-79
2022/07/02 02:31:20;;;;;;;;;;;;;;;16.29;54.68;101131.94;4937954;28;7012;-79
2022/07/02 02:33:45;;;;;;;;;;;;;;;16.32;54.00;101133.72;4937552;28;7718;-79
2022/07/02 02:36:11;;;;;;;;;;;;;;;16.32;54.69;101139.78;4941363;28;6764;-79
2022/07/02 02:38:37;;;;;;;;;;;;;;;16.32;54.12;101138.91;4951216;28;6961;-79
2022/07/02 02:41:07;;;;;;;;;;;;;;;16.29;54.02;101134.53;4968389;28;8778;-79
2022/07/02 02:43:36;;;;;;;;;;;;;;;16.24;53.83;101147.28;4947293;28;6919;-79
2022/07/02 02:46:03;;;;;;;;;;;;;;;16.22;53.93;101148.03;4976097;28;7289;-79
2022/07/02 02:48:29;;;;;;;;;;;;;;;16.19;53.74;101146.22;4944039;28;6942;-79
2022/07/02 02:50:56;;;;;;;;;;;;;;;16.15;53.54;101144.38;4931026;28;7912;-79
2022/07/02 02:53:22;;;;;;;;;;;;;;;16.11;54.31;101145.06;4951514;28;8921;-79
2022/07/02 02:55:48;;;;;;;;;;;;;;;16.07;53.93;101153.53;4954439;28;7246;-79
2022/07/02 02:58:14;;;;;;;;;;;;;;;16.01;53.80;101153.28;4960350;28;6954;-79
2022/07/02 03:00:39;;;;;;;;;;;;;;;15.96;54.11;101151.44;4944872;28;6776;-79
2022/07/02 03:03:05;;;;;;;;;;;;;;;15.92;54.02;101159.88;4964992;28;7161;-79
2022/07/02 03:05:30;;;;;;;;;;;;;;;15.90;54.30;101158.03;4955503;28;8271;-79
2022/07/02 03:07:56;;;;;;;;;;;;;;;15.87;53.99;101166.56;4975870;28;7190;-79
2022/07/02 03:10:22;;;;;;;;;;;;;;;15.81;54.54;101162.03;4949714;28;7135;-79
2022/07/02 03:12:49;;;;;;;;;;;;;;;15.81;53.73;101166.31;4948530;28;6998;-79
2022/07/02 03:15:14;;;;;;;;;;;;;;;15.76;54.40;101160.09;4935845;28;8819;-79
2022/07/02 03:17:40;;;;;;;;;;;;;;;15.74;54.06;101159.13;4957752;28;8392;-79
2022/07/02 03:20:06;;;;;;;;;;;;;;;15.73;53.76;101166.00;4946023;28;6779;-79
2022/07/02 03:22:32;;;;;;;;;;;;;;;15.71;54.63;101153.84;4948080;28;6967;-79
2022/07/02 03:24:58;;;;;;;;;;;;;;;15.68;54.57;101162.34;4930515;28;6971;-79
2022/07/02 03:27:24;;;;;;;;;;;;;;;15.65;54.64;101165.72;4946704;28;8032;-79
2022/07/02 03:29:51;;;;;;;;;;;;;;;15.62;54.62;101170.75;4971069;28;7294;-79
2022/07/02 03:32:18;;;;;;;;;;;;;;;15.61;54.56;101169.00;4972482;28;6796;-79
2022/07/02 03:34:44;;;;;;;;;;;;;;;15.60;54.71;101168.94;4959088;28;6836;-78
2022/07/02 03:37:10;;;;;;;;;;;;;;;15.59;54.21;101168.06;4974387;28;7233;-79
2022/07/02 03:39:36;;;;;;;;;;;;;;;15.57;54.66;101159.38;4942309;28;6784;-79
2022/07/02 03:42:01;;;;;;;;;;;;;;;15.56;54.59;101167.94;4931233;28;8375;-79
2022/07/02 03:44:27;;;;;;;;;;;;;;;15.57;55.11;101163.63;4963591;28;6772;-78
2022/07/02 03:46:53;;;;;;;;;;;;;;;15.59;54.81;101168.06;4961590;28;6954;-78
2022/07/02 03:49:18;;;;;;;;;;;;;;;15.59;54.86;101162.88;4978045;28;6784;-77
2022/07/02 03:51:44;;;;;;;;;;;;;;;15.59;55.15;101168.06;4958811;28;7833;-78
2022/07/02 03:54:09;;;;;;;;;;;;;;;15.62;54.78;101170.75;4973545;28;8478;-78
2022/07/02 03:56:35;;;;;;;;;;;;;;;15.64;54.99;101161.34;4961747;28;6961;-78
2022/07/02 03:59:01;;;;;;;;;;;;;;;15.68;55.01;101163.25;4969172;28;7114;-78
2022/07/02 04:01:26;;;;;;;;;;;;;;;15.73;55.24;101160.84;4942041;28;7155;-78
2022/07/02 04:03:52;;;;;;;;;;;;;;;15.74;55.40;101160.03;4940127;28;8884;-78
2022/07/02 04:06:18;;;;;;;;;;;;;;;15.78;55.04;101155.84;4962430;28;6784;-78
2022/07/02 04:08:43;;;;;;;;;;;;;;;15.81;55.31;101156.84;4944824;28;7029;-78
2022/07/02 04:11:09;;;;;;;;;;;;;;;15.85;54.94;101162.13;4960779;28;7285;-78
2022/07/02 04:13:34;;;;;;;;;;;;;;;15.88;54.72;101163.13;4936457;28;7241;-78
2022/07/02 04:16:01;;;;;;;;;;;;;;;15.90;55.18;101166.69;4963624;28;6780;-78
2022/07/02 04:18:26;;;;;;;;;;;;;;;15.93;55.54;101164.25;4965467;28;6963;-78
2022/07/02 04:20:52;;;;;;;;;;;;;;;16.08;55.85;101163.94;4960614;28;6792;-79
2022/07/02 04:23:18;;;;;;;;;;;;;;;16.36;57.49;101158.91;4979968;28;7126;-79
2022/07/02 04:25:43;;;;;;;;;;;;;;;16.76;57.66;101165.47;4972528;28;7023;-79
2022/07/02 04:28:10;;;;;;;;;;;;;;;17.23;58.42;101164.50;4981431;28;6840;-79
2022/07/02 04:30:36;;;;;;;;;;;;;;;17.74;58.15;101167.78;4949780;28;9260;-79
2022/07/02 04:33:02;;;;;;;;;;;;;;;18.27;58.22;101156.41;4980203;28;6799;-79
2022/07/02 04:35:28;;;;;;;;;;;;;;;18.77;56.66;101149.97;4934262;28;6955;-78
2022/07/02 04:37:54;;;;;;;;;;;;;;;19.28;56.01;101153.88;4979130;28;6856;-79
2022/07/02 04:40:20;;;;;;;;;;;;;;;19.76;55.84;101149.75;4944594;28;8622;-79
2022/07/02 04:42:45;;;;;;;;;;;;;;;20.28;55.58;101149.13;4979189;28;7332;-79
2022/07/02 04:45:11;;;;;;;;;;;;;;;20.79;54.99;101150.06;4966974;28;7204;-79
2022/07/02 04:47:37;;;;;;;;;;;;;;;21.29;54.00;101145.69;4976509;28;6983;-79
2022/07/02 04:50:02;;;;;;;;;;;;;;;21.77;52.49;101143.81;4982919;28;7013;-79
2022/07/02 04:52:28;;;;;;;;;;;;;;;22.23;51.22;101137.44;4946768;28;8293;-79
2022/07/02 04:54:55;;;;;;;;;;;;;;;22.65;50.52;101135.28;4979446;28;6964;-79
2022/07/02 04:57:20;;;;;;;;;;;;;;;23.03;49.51;101131.25;4949683;28;6796;-79
2022/07/02 04:59:46;;;;;;;;;;;;;;;23.43;48.85;101141.16;4953877;28;8406;-79
2022/07/02 05:02:12;;;;;;;;;;;;;;;23.80;48.37;101145.72;4979301;28;7086;-79
2022/07/02 05:04:39;;;;;;;;;;;;;;;24.16;46.80;101144.16;4932585;28;7289;-79
2022/07/02 05:07:04;;;;;;;;;;;;;;;24.47;46.50;101144.22;4954541;28;7300;-79
2022/07/02 05:09:30;;;;;;;;;;;;;;;24.76;45.89;101148.66;4984103;28;8889;-79
2022/07/02 05:11:56;;;;;;;;;;;;;;;25.04;45.84;101143.44;4979129;28;8251;-80
2022/07/02 05:14:22;;;;;;;;;;;;;;;25.29;44.74;101143.41;4977678;28;6776;-79
2022/07/02 05:16:47;;;;;;;;;;;;;;;25.45;43.29;101146.91;4967099;28;7004;-78
2022/07/02 05:19:13;;;;;;;;;;;;;;;25.54;42.14;101145.13;4964879;28;7186;-79
2022/07/02 05:21:42;;;;;;;;;;;;;;;25.56;42.71;101143.41;4968799;28;6952;-79
2022/07/02 05:24:07;;;;;;;;;;;;;;;25.65;43.39;101136.34;4952943;28;7731;-80
2022/07/02 05:26:33;;;;;;;;;;;;;;;25.78;43.05;101131.06;4973057;28;7308;-79
2022/07/02 05:28:59;;;;;;;;;;;;;;;25.95;42.55;101130.13;4965229;28;6877;-79
2022/07/02 05:31:25;;;;;;;;;;;;;;;26.10;42.50;101134.44;4964899;28;7184;-79
2022/07/02 05:33:50;;;;;;;;;;;;;;;26.27;42.63;101137.88;4966625;28;6980;-79
2022/07/02 05:36:16;;;;;;;;;;;;;;;26.46;41.32;101135.13;4979169;28;6983;-79
2022/07/02 05:38:42;;;;;;;;;;;;;;;26.55;40.27;101136.81;4979230;28;6772;-79
2022/07/02 05:41:07;;;;;;;;;;;;;;;26.60;39.83;101142.94;4980205;28;6823;-79
2022/07/02 05:43:33;;;;;;;;;;;;;;;26.62;39.60;101135.91;4936608;28;7252;-79
2022/07/02 05:45:59;;;;;;;;;;;;;;;26.62;39.21;101133.28;4937826;28;7297;-79
2022/07/02 05:48:25;;;;;;;;;;;;;;;26.67;39.50;101139.38;4964135;28;7039;-79
2022/07/02 05:50:50;;;;;;;;;;;;;;;26.70;38.56;101146.34;4970530;28;6987;-79
2022/07/02 05:53:16;;;;;;;;;;;;;;;26.69;38.00;101145.50;4950039;28;6880;-79
2022/07/02 05:55:42;;;;;;;;;;;;;;;26.68;38.23;101137.59;4980099;28;6934;-79
2022/07/02 05:58:08;;;;;;;;;;;;;;;26.61;38.20;101147.28;4933747;28;8022;-79
2022/07/02 06:00:34;;;;;;;;;;;;;;;26.49;37.47;101148.25;4972495;28;6829;-78
2022/07/02 06:03:00;;;;;;;;;;;;;;;26.35;37.93;101135.19;4949948;28;6784;-79
2022/07/02 06:08:10;;;;;;;;;;;;;;;25.81;37.92;101152.06;4969240;28;6808;-78
2022/07/02 06:10:36;;;;;;;;;;;;;;;25.53;37.04;101149.53;4978379;28;6936;-78
2022/07/02 06:13:02;;;;;;;;;;;;;;;25.23;37.20;101156.53;4975486;28;6940;-77
2022/07/02 06:15:28;;;;;;;;;;;;;;;24.94;37.07;101152.19;4977822;28;6808;-78
2022/07/02 06:17:57;;;;;;;;;;;;;;;24.66;37.86;101144.25;4948649;28;7199;-78
2022/07/02 06:20:23;;;;;;;;;;;;;;;24.42;37.91;101148.56;4944694;28;7106;-78
2022/07/02 06:22:48;;;;;;;;;;;;;;;24.24;37.96;101152.03;4951456;28;7283;-79
2022/07/02 06:25:14;;;;;;;;;;;;;;;24.09;38.45;101158.09;4930204;28;8599;-79
2022/07/02 06:27:40;;;;;;;;;;;;;;;23.94;38.71;101161.50;4967134;28;6924;-80
2022/07/02 06:30:07;;;;;;;;;;;;;;;23.83;39.36;101161.44;4957398;28;6927;-79
2022/07/02 06:32:33;;;;;;;;;;;;;;;23.77;39.22;101161.41;4970290;28;7058;-79
2022/07/02 06:34:58;;;;;;;;;;;;;;;23.71;39.23;101160.50;4972289;28;6772;-79
2022/07/02 06:37:25;;;;;;;;;;;;;;;23.69;39.84;101162.25;4973749;28;6753;-79
2022/07/02 06:39:51;;;;;;;;;;;;;;;23.67;39.13;101165.72;4945615;28;6968;-79
2022/07/02 06:42:22;;;;;;;;;;;;;;;23.66;39.42;101164.84;4960432;28;7136;-79
2022/07/02 06:44:53;;;;;;;;;;;;;;;23.68;39.92;101163.09;4947307;28;7615;-79
2022/07/02 06:47:21;;;;;;;;;;;;;;;23.74;39.95;101156.16;4946441;28;6816;-79
2022/07/02 06:49:48;;;;;;;;;;;;;;;23.76;39.11;101157.91;4951949;28;6804;-80
2022/07/02 06:52:15;;;;;;;;;;;;;;;23.81;38.95;101155.31;4964512;28;8451;-80
2022/07/02 06:54:42;;;;;;;;;;;;;;;23.86;39.12;101158.84;4939359;28;7063;-80
2022/07/02 06:57:08;;;;;;;;;;;;;;;23.94;38.78;101159.72;4954562;28;7201;-81
2022/07/02 06:59:35;;;;;;;;;;;;;;;24.09;38.93;101147.63;4968765;28;6971;-81
2022/07/02 07:02:02;;;;;;;;;;;;;;;24.36;38.25;101143.34;4979045;28;6800;-81
2022/07/02 07:04:28;;;;;;;;;;;;;;;24.70;38.43;101140.75;4940038;28;7272;-81
2022/07/02 07:06:55;;;;;;;;;;;;;;;25.10;37.66;101145.19;4954046;28;6800;-80
2022/07/02 07:09:22;;;;;;;;;;;;;;;25.54;37.37;101146.03;4952663;28;6808;-80
2022/07/02 07:11:47;;;;;;;;;;;;;;;26.00;36.95;101142.34;4970740;28;7135;-80
2022/07/02 07:14:13;;;;;;;;;;;;;;;26.45;36.48;101136.88;4982091;28;6820;-80
2022/07/02 07:16:39;;;;;;;;;;;;;;;26.89;35.93;101147.97;4965321;28;6792;-80
2022/07/02 07:19:05;;;;;;;;;;;;;;;27.29;35.19;101141.50;4969447;28;6987;-80
2022/07/02 07:21:32;;;;;;;;;;;;;;;27.65;34.94;101145.53;4955176;28;6989;-79
2022/07/02 07:23:58;;;;;;;;;;;;;;;28.04;34.53;101140.66;4979788;28;7196;-80
2022/07/02 07:26:23;;;;;;;;;;;;;;;28.45;33.43;101132.22;4952055;28;7532;-80
2022/07/02 07:28:49;;;;;;;;;;;;;;;28.88;32.65;101133.31;4952928;28;6788;-80
2022/07/02 07:31:19;;;;;;;;;;;;;;;29.23;32.12;101137.13;4949374;28;8622;-80
2022/07/02 07:33:55;;;;;;;;;;;;;;;29.56;31.80;101136.53;4949981;28;7001;-81
2022/07/02 07:36:24;;;;;;;;;;;;;;;29.80;31.05;101137.81;4978145;28;7040;-80
2022/07/02 07:38:51;;;;;;;;;;;;;;;29.93;30.75;101130.47;4982902;28;7267;-80
2022/07/02 07:41:21;;;;;;;;;;;;;;;30.03;29.92;101136.44;4955580;28;6969;-81
2022/07/02 07:43:46;;;;;;;;;;;;;;;30.15;29.54;101137.97;4954837;28;7890;-80
2022/07/02 07:46:12;;;;;;;;;;;;;;;30.33;30.05;101134.91;4982640;28;6776;-80
2022/07/02 07:48:38;;;;;;;;;;;;;;;30.56;29.34;101137.88;4954321;28;7315;-80
2022/07/02 07:51:07;;;;;;;;;;;;;;;30.76;28.43;101137.44;4954585;28;6949;-80
2022/07/02 07:53:33;;;;;;;;;;;;;;;30.98;28.54;101131.59;4951338;28;7257;-80
2022/07/02 07:55:59;;;;;;;;;;;;;;;31.25;28.03;101134.44;4982040;28;6856;-80
2022/07/02 07:58:25;;;;;;;;;;;;;;;31.47;28.03;101132.09;4940465;28;8521;-81
2022/07/02 08:00:51;;;;;;;;;;;;;;;31.68;27.32;101132.38;4981478;28;6950;-80
2022/07/02 08:03:20;;;;;;;;;;;;;;;31.86;27.02;101125.69;4959956;28;7315;-81
2022/07/02 08:05:46;;;;;;;;;;;;;;;31.94;26.34;101123.66;4985892;28;7243;-82
2022/07/02 08:08:13;;;;;;;;;;;;;;;32.02;26.15;101125.22;4957912;28;8483;-81
2022/07/02 08:10:39;;;;;;;;;;;;;;;32.08;25.50;101127.69;4935158;28;7469;-81
2022/07/02 08:13:05;;;;;;;;;;;;;;;32.14;25.31;101136.31;4979214;28;7318;-81
2022/07/02 08:15:30;;;;;;;;;;;;;;;32.31;25.65;101126.09;4940189;28;7273;-82
2022/07/02 08:17:56;;;;;;;;;;;;;;;32.44;25.51;101121.31;4982142;28;6944;-81
2022/07/02 08:20:22;;;;;;;;;;;;;;;32.51;25.28;101122.84;4952160;28;6836;-81
2022/07/02 08:22:49;;;;;;;;;;;;;;;32.63;25.15;101124.19;4957396;28;6776;-81
2022/07/02 08:25:15;;;;;;;;;;;;;;;32.82;24.60;101127.97;4971628;28;6796;-81
2022/07/02 08:27:42;;;;;;;;;;;;;;;32.89;24.63;101120.69;4966644;28;7361;-80
2022/07/02 08:30:08;;;;;;;;;;;;;;;33.01;24.15;101110.59;4960637;28;7003;-80
2022/07/02 08:32:34;;;;;;;;;;;;;;;33.08;23.60;101114.75;4948138;28;6934;-81
2022/07/02 08:35:00;;;;;;;;;;;;;;;33.24;23.81;101109.75;4937374;28;7381;-82
2022/07/02 08:37:26;;;;;;;;;;;;;;;33.46;23.88;101111.63;4937513;28;7138;-82
2022/07/02 08:39:52;;;;;;;;;;;;;;;33.65;23.44;101107.38;4939813;28;8098;-81
2022/07/02 08:42:30;;;;;;;;;;;;;;;33.77;23.17;101110.47;4983531;28;6784;-81
2022/07/02 08:45:00;;;;;;;;;;;;;;;33.69;22.85;101108.13;4953603;28;7184;-80
2022/07/02 08:47:27;;;;;;;;;;;;;;;33.68;22.97;101116.16;4957639;28;6804;-81
2022/07/02 08:49:57;;;;;;;;;;;;;;;33.76;23.06;101109.63;4976745;28;6819;-81
2022/07/02 08:52:25;;;;;;;;;;;;;;;34.02;23.06;101110.41;4951581;28;6788;-81
2022/07/02 08:54:52;;;;;;;;;;;;;;;34.31;23.06;101099.53;4964493;28;7222;-81
2022/07/02 08:57:21;;;;;;;;;;;;;;;34.55;22.07;101102.13;4969187;28;9196;-81
2022/07/02 08:59:47;;;;;;;;;;;;;;;34.71;22.29;101100.56;4957651;28;6983;-81
2022/07/02 09:02:15;;;;;;;;;;;;;;;35.01;22.51;101101.94;4952814;28;6942;-81
2022/07/02 09:04:49;;;;;;;;;;;;;;;35.00;21.81;101101.06;4984979;28;7359;-82
2022/07/02 09:07:17;;;;;;;;;;;;;;;34.86;21.96;101092.81;4960567;28;7260;-81
2022/07/02 09:09:45;;;;;;;;;;;;;;;34.67;21.92;101096.31;4980910;28;7200;-81
2022/07/02 09:12:14;;;;;;;;;;;;;;;34.01;21.93;101099.84;4976347;28;6828;-82
2022/07/02 09:14:43;;;;;;;;;;;;;;;33.08;22.03;101099.69;4949010;28;6981;-82
2022/07/02 09:17:11;;;;;;;;;;;;;;;32.21;22.77;101093.69;4950447;28;6851;-82
2022/07/02 09:19:38;;;;;;;;;;;;;;;31.93;23.19;101091.94;4937078;28;6863;-81
2022/07/02 09:22:06;;;;;;;;;;;;;;;31.95;23.20;101087.44;4977882;28;8398;-83
2022/07/02 09:24:39;;;;;;;;;;;;;;;32.17;23.83;101092.06;4952962;28;6979;-82
2022/07/02 09:27:12;;;;;;;;;;;;;;;32.70;23.76;101093.88;4949866;28;7197;-82
2022/07/02 09:29:47;;;;;;;;;;;;;;;33.34;23.73;101086.38;4968291;28;8167;-81
2022/07/02 09:32:16;;;;;;;;;;;;;;;34.06;23.75;101084.56;4947291;28;7235;-81
2022/07/02 09:34:51;;;;;;;;;;;;;;;34.83;22.44;101077.88;4960172;28;7399;-80
2022/07/02 09:37:23;;;;;;;;;;;;;;;35.22;21.95;101070.00;4963183;28;7303;-80
2022/07/02 09:39:52;;;;;;;;;;;;;;;35.42;21.63;101074.38;4934622;28;7062;-80
2022/07/02 09:42:33;;;;;;;;;;;;;;;35.65;20.64;101068.00;4977007;28;7000;-80
2022/07/02 09:45:03;;;;;;;;;;;;;;;36.02;20.84;101064.50;4946565;28;8309;-80
2022/07/02 09:47:37;;;;;;;;;;;;;;;36.30;20.73;101069.34;4948675;28;6832;-80
2022/07/02 09:50:12;;;;;;;;;;;;;;;36.40;20.73;101065.28;4929971;28;7632;-80
2022/07/02 09:52:50;;;;;;;;;;;;;;;36.46;19.78;101057.91;4944738;28;8685;-80
2022/07/02 09:55:21;;;;;;;;;;;;;;;36.69;20.34;101054.94;4962077;28;7307;-79
2022/07/02 09:57:56;;;;;;;;;;;;;;;37.21;19.71;101058.47;4961005;28;11383;-80
2022/07/02 10:00:26;;;;;;;;;;;;;;;37.64;19.36;101054.38;4933949;28;7072;-80
2022/07/02 10:02:55;;;;;;;;;;;;;;;37.72;19.07;101051.31;4946721;28;7310;-80
2022/07/02 10:05:36;;;;;;;;;;;;;;;37.90;19.26;101046.69;4949731;28;7012;-81
2022/07/02 10:08:04;;;;;;;;;;;;;;;38.11;18.90;101046.44;4980775;28;6939;-81
2022/07/02 10:10:41;;;;;;;;;;;;;;;38.25;18.53;101043.81;4952532;28;7304;-81
2022/07/02 10:13:13;;;;;;;;;;;;;;;38.48;18.55;101038.88;4969353;28;6863;-81
2022/07/02 10:15:53;;;;;;;;;;;;;;;38.32;18.11;101036.28;4980099;28;7563;-80
2022/07/02 10:18:19;;;;;;;;;;;;;;;37.87;18.35;101044.22;4969403;28;6803;-81
2022/07/02 10:20:45;;;;;;;;;;;;;;;37.67;18.81;101035.53;4979348;28;7450;-81
2022/07/02 10:23:12;;;;;;;;;;;;;;;37.82;18.56;101027.56;4955859;28;8437;-81
2022/07/02 10:25:39;;;;;;;;;;;;;;;38.24;18.53;101026.00;4981044;28;7159;-81
2022/07/02 10:28:05;;;;;;;;;;;;;;;38.60;18.13;101019.41;4966999;28;6970;-81
2022/07/02 10:30:32;;;;;;;;;;;;;;;38.85;18.11;101025.94;4982060;28;7106;-82
2022/07/02 10:33:38;;;;;;;;;;;;;;;39.19;17.82;101024.78;4966170;28;6981;-81
2022/07/02 10:36:10;;;;;;;;;;;;;;;39.41;17.43;101019.81;4970904;28;7177;-81
2022/07/02 10:38:38;;;;;;;;;;;;;;;39.54;17.33;101014.50;4974680;28;7071;-80
2022/07/02 10:41:07;;;;;;;;;;;;;;;39.65;16.53;101010.28;4953411;28;6847;-81
2022/07/02 10:43:36;;;;;;;;;;;;;;;39.68;16.54;101010.06;4984783;28;6800;-81
2022/07/02 10:46:08;;;;;;;;;;;;;;;39.43;16.70;101000.94;4969343;28;6804;-82
2022/07/02 10:48:47;;;;;;;;;;;;;;;38.66;16.99;101009.31;4955011;28;6785;-81
2022/07/02 10:51:28;;;;;;;;;;;;;;;38.37;17.70;101009.22;4952622;28;7163;-81
2022/07/02 10:53:57;;;;;;;;;;;;;;;38.24;17.74;101009.09;4958109;28;6820;-81
2022/07/02 10:56:23;;;;;;;;;;;;;;;38.22;18.05;101008.34;4946255;28;7000;-81
2022/07/02 10:58:49;;;;;;;;;;;;;;;38.55;18.25;101016.19;4959245;28;7361;-81
2022/07/02 11:01:20;;;;;;;;;;;;;;;39.03;17.66;101005.19;4963464;28;6977;-80
2022/07/02 11:03:57;;;;;;;;;;;;;;;39.40;17.37;101001.13;4952748;28;7109;-80
2022/07/02 11:06:33;;;;;;;;;;;;;;;39.71;16.96;100999.13;4975461;28;6964;-80
2022/07/02 11:09:05;;;;;;;;;;;;;;;40.04;16.60;100997.00;4983599;28;7837;-80
2022/07/02 11:11:36;;;;;;;;;;;;;;;40.37;16.47;100996.53;4954228;28;6819;-80
2022/07/02 11:14:15;;;;;;;;;;;;;;;40.68;16.52;100985.47;4982460;28;7015;-80
2022/07/02 11:16:53;;;;;;;;;;;;;;;40.93;16.38;100989.09;4979448;28;7231;-81
2022/07/02 11:19:28;;;;;;;;;;;;;;;41.04;16.71;100991.84;4980214;28;6970;-80
2022/07/02 11:22:02;;;;;;;;;;;;;;;40.91;16.26;100988.34;4934339;28;6972;-79
2022/07/02 11:24:31;;;;;;;;;;;;;;;40.89;16.37;100984.91;4978965;28;7179;-80
2022/07/02 11:27:00;;;;;;;;;;;;;;;40.71;15.83;100985.22;4952109;28;6983;-80
2022/07/02 11:29:28;;;;;;;;;;;;;;;40.44;15.90;100983.53;4951866;28;7041;-81
2022/07/02 11:31:58;;;;;;;;;;;;;;;39.87;16.27;100976.69;4976421;28;6808;-80
2022/07/02 11:34:29;;;;;;;;;;;;;;;39.64;16.81;100973.66;4948097;28;7741;-80
2022/07/02 11:36:55;;;;;;;;;;;;;;;39.58;16.93;100977.63;4934908;28;7061;-80
2022/07/02 11:39:24;;;;;;;;;;;;;;;39.60;16.72;100959.63;4948909;28;6969;-80
2022/07/02 11:41:51;;;;;;;;;;;;;;;39.90;17.05;100955.88;4951719;28;6978;-80
2022/07/02 11:44:18;;;;;;;;;;;;;;;40.31;16.69;100961.16;4944200;28;6797;-80
2022/07/02 11:46:50;;;;;;;;;;;;;;;40.55;16.54;100962.13;4946452;28;6976;-80
2022/07/02 11:49:19;;;;;;;;;;;;;;;40.72;16.40;100956.56;4945893;28;6800;-80
2022/07/02 11:51:48;;;;;;;;;;;;;;;40.78;16.47;100956.13;4948029;28;6878;-80
2022/07/02 11:54:15;;;;;;;;;;;;;;;40.87;16.33;100951.94;4964246;28;7189;-80
2022/07/02 11:56:44;;;;;;;;;;;;;;;41.00;16.06;100947.38;4947287;28;7077;-80
2022/07/02 11:59:14;;;;;;;;;;;;;;;41.07;15.33;100940.59;4979670;28;6942;-80
2022/07/02 12:01:43;;;;;;;;;;;;;;;41.17;15.45;100945.28;4977020;28;7191;-79
2022/07/02 12:04:16;;;;;;;;;;;;;;;41.05;15.77;100944.34;4945883;28;6885;-79
2022/07/02 12:06:45;;;;;;;;;;;;;;;40.56;15.77;100944.22;4979023;28;6848;-80
2022/07/02 12:09:15;;;;;;;;;;;;;;;40.32;16.29;100938.75;4963723;28;6993;-80
2022/07/02 12:11:44;;;;;;;;;;;;;;;40.38;16.51;100939.19;4933918;28;7011;-80
2022/07/02 12:14:12;;;;;;;;;;;;;;;40.52;16.45;100937.34;4961428;28;7355;-80
2022/07/02 12:16:44;;;;;;;;;;;;;;;40.69;15.82;100933.47;4947493;28;7133;-80
2022/07/02 12:19:13;;;;;;;;;;;;;;;40.88;15.98;100916.88;4961197;28;7153;-80
2022/07/02 12:21:43;;;;;;;;;;;;;;;40.95;15.88;100917.28;4975692;28;7038;-80
2022/07/02 12:24:31;;;;;;;;;;;;;;;40.86;16.22;100921.50;4969175;28;7657;-80
2022/07/02 12:27:09;;;;;;;;;;;;;;;40.85;16.17;100908.19;4967357;28;7236;-79
2022/07/02 12:32:33;;;;;;;;;;;;;;;41.18;15.66;100904.00;4949600;28;6856;-80
2022/07/02 12:35:09;;;;;;;;;;;;;;;41.08;15.38;100907.38;4955390;28;6896;-79
2022/07/02 12:37:38;;;;;;;;;;;;;;;40.72;15.35;100903.69;4964460;28;8167;-79
2022/07/02 12:40:09;;;;;;;;;;;;;;;40.70;16.16;100902.94;4949034;28;7366;-79
2022/07/02 12:42:58;;;;;;;;;;;;;;;40.80;15.88;100893.28;4971285;28;7269;-80
2022/07/02 12:45:29;;;;;;;;;;;;;;;40.90;16.35;100900.66;4953149;28;7741;-79
2022/07/02 12:48:06;;;;;;;;;;;;;;;40.88;16.16;100895.38;4954269;28;7348;-80
2022/07/02 12:50:37;;;;;;;;;;;;;;;40.46;16.64;100887.63;4972684;28;6997;-80
2022/07/02 12:53:15;;;;;;;;;;;;;;;40.18;16.84;100896.75;4986087;28;8350;-81
2022/07/02 12:55:56;;;;;;;;;;;;;;;39.79;16.72;100889.50;4980340;28;7095;-80
2022/07/02 12:58:22;;;;;;;;;;;;;;;39.61;16.94;100880.91;4980488;28;7969;-80
2022/07/02 13:00:48;;;;;;;;;;;;;;;39.77;16.64;100871.78;4967303;28;7228;-79